Time;durP1;ratioP1;P1;durP2;ratioP2;P2;SDS_P1;SDS_P2;PMS_P1;PMS_P2;Temp;Humidity;BMP_temperature;BMP_pressure;BME280_temperature;BME280_humidity;BME280_pressure;Samples;Min_cycle;Max_cycle;Signal;HPM_P1;HPM_P2
2023/08/16 00:00:14;;;;;;;12.88;7.07;;;18.70;99.90;;;;;;10031624;29;20237;-92
2023/08/16 00:05:19;;;;;;;8.85;7.95;;;18.70;99.90;;;;;;10053723;29;20285;-90
2023/08/16 00:10:22;;;;;;;11.50;5.93;;;18.60;99.90;;;;;;10053601;29;20233;-90
2023/08/16 00:15:26;;;;;;;7.32;6.00;;;18.60;99.90;;;;;;10054460;29;20261;-91
2023/08/16 00:20:30;;;;;;;6.60;5.35;;;18.60;99.90;;;;;;10052176;29;20262;-92
2023/08/16 00:25:32;;;;;;;11.57;7.72;;;18.50;99.90;;;;;;10055653;29;20292;-90
2023/08/16 00:30:39;;;;;;;8.05;6.72;;;18.40;99.90;;;;;;10054868;29;20299;-90
2023/08/16 00:35:46;;;;;;;9.32;6.45;;;18.40;99.90;;;;;;10042322;29;20210;-91
2023/08/16 00:40:50;;;;;;;6.68;5.40;;;18.40;99.90;;;;;;10056475;29;20738;-90
2023/08/16 00:45:54;;;;;;;6.60;6.00;;;18.40;99.90;;;;;;10055701;29;20257;-90
2023/08/16 00:50:57;;;;;;;6.53;5.93;;;18.50;99.90;;;;;;10055754;29;20241;-90
2023/08/16 00:56:03;;;;;;;10.40;7.80;;;18.60;99.90;;;;;;10055610;29;20221;-91
2023/08/16 01:01:07;;;;;;;16.08;4.55;;;18.50;99.90;;;;;;10054589;29;20281;-92
2023/08/16 01:06:10;;;;;;;10.13;7.03;;;18.50;99.90;;;;;;10046977;29;20268;-90
2023/08/16 01:11:22;;;;;;;11.48;7.40;;;18.50;99.90;;;;;;10056818;29;20266;-90
2023/08/16 01:16:27;;;;;;;6.63;6.03;;;18.40;99.90;;;;;;10053579;29;20304;-90
2023/08/16 01:21:34;;;;;;;8.30;7.50;;;18.30;99.90;;;;;;10052431;29;20388;-90
2023/08/16 01:26:37;;;;;;;5.70;5.00;;;18.20;99.90;;;;;;10051671;29;20261;-91
2023/08/16 01:31:41;;;;;;;8.45;6.32;;;18.40;99.90;;;;;;10035371;29;20694;-91
2023/08/16 01:36:43;;;;;;;6.95;6.18;;;18.40;99.90;;;;;;10050292;29;20241;-90
2023/08/16 01:41:54;;;;;;;7.85;6.53;;;18.40;99.90;;;;;;10048345;29;20248;-90
2023/08/16 01:46:58;;;;;;;5.40;4.90;;;18.40;99.90;;;;;;10036326;29;20316;-89
2023/08/16 01:52:02;;;;;;;6.53;5.93;;;18.20;99.90;;;;;;10049986;29;20233;-91
2023/08/16 01:57:04;;;;;;;8.25;6.65;;;18.40;99.90;;;;;;10050341;29;20245;-91
2023/08/16 02:02:07;;;;;;;9.70;7.32;;;18.20;99.90;;;;;;10049636;29;20697;-91
2023/08/16 02:07:11;;;;;;;7.88;6.45;;;18.00;99.90;;;;;;10046543;29;20783;-91
2023/08/16 02:12:14;;;;;;;7.53;6.80;;;18.10;99.90;;;;;;10052183;29;20209;-90
2023/08/16 02:17:16;;;;;;;6.15;5.22;;;18.10;99.90;;;;;;10050946;29;20261;-90
2023/08/16 02:22:19;;;;;;;6.90;6.15;;;18.20;99.90;;;;;;10049487;29;20249;-92
2023/08/16 02:27:23;;;;;;;7.90;7.07;;;18.10;99.90;;;;;;10035268;29;20328;-91
2023/08/16 02:32:27;;;;;;;6.80;6.20;;;17.90;99.90;;;;;;10049289;29;20299;-91
2023/08/16 02:37:30;;;;;;;9.75;8.02;;;17.90;99.90;;;;;;10049568;29;20380;-90
2023/08/16 02:42:34;;;;;;;8.77;6.93;;;17.80;99.90;;;;;;10045478;29;20613;-91
2023/08/16 02:47:37;;;;;;;7.60;5.72;;;17.80;99.90;;;;;;10041207;29;20261;-90
2023/08/16 02:52:40;;;;;;;7.60;5.72;;;17.80;99.90;;;;;;10038878;29;20628;-91
2023/08/16 02:57:42;;;;;;;8.35;6.25;;;17.90;99.90;;;;;;10048103;29;20701;-90
2023/08/16 03:02:45;;;;;;;9.55;5.70;;;18.00;99.90;;;;;;10056498;29;20237;-90
2023/08/16 03:07:48;;;;;;;9.10;7.85;;;18.00;99.90;;;;;;10051104;29;20264;-90
2023/08/16 03:12:52;;;;;;;8.93;7.05;;;17.70;99.90;;;;;;10046865;29;20229;-91
2023/08/16 03:17:55;;;;;;;10.65;7.22;;;17.70;99.90;;;;;;10040827;29;20321;-91
2023/08/16 03:22:58;;;;;;;7.25;6.65;;;17.70;99.90;;;;;;10049077;29;20384;-90
2023/08/16 03:28:00;;;;;;;7.47;5.88;;;17.60;99.90;;;;;;10050931;29;20661;-91
2023/08/16 03:33:03;;;;;;;9.30;7.20;;;17.70;99.90;;;;;;10053350;29;20221;-90
2023/08/16 03:38:07;;;;;;;8.07;7.28;;;17.60;99.90;;;;;;10044862;29;20246;-91
2023/08/16 03:43:10;;;;;;;16.83;9.60;;;17.60;99.90;;;;;;10051770;29;20305;-91
2023/08/16 03:48:12;;;;;;;11.15;8.30;;;17.50;99.90;;;;;;10054556;29;20253;-90
2023/08/16 03:53:15;;;;;;;9.65;7.63;;;17.50;99.90;;;;;;10046654;29;20313;-90
2023/08/16 03:58:19;;;;;;;8.15;6.88;;;17.40;99.90;;;;;;10038530;29;20241;-90
2023/08/16 04:03:22;;;;;;;8.27;7.47;;;17.40;99.90;;;;;;10053383;29;20313;-91
2023/08/16 04:08:24;;;;;;;9.27;7.85;;;17.40;99.90;;;;;;10056176;29;20994;-90
2023/08/16 04:13:27;;;;;;;9.88;7.32;;;17.50;99.90;;;;;;10054975;29;20237;-90
2023/08/16 04:18:30;;;;;;;9.05;6.57;;;17.60;99.90;;;;;;10038374;29;20257;-91
2023/08/16 04:23:33;;;;;;;9.07;8.27;;;17.60;99.90;;;;;;10068458;29;20749;-90
2023/08/16 04:28:37;;;;;;;9.98;7.70;;;17.60;99.90;;;;;;10053721;29;20261;-91
2023/08/16 04:33:39;;;;;;;11.25;8.82;;;17.80;99.90;;;;;;10049743;29;20262;-89
2023/08/16 04:38:42;;;;;;;11.63;10.52;;;17.90;99.90;;;;;;10055658;29;20297;-90
2023/08/16 04:43:45;;;;;;;6.32;5.72;;;18.00;99.90;;;;;;10053261;29;20649;-91
2023/08/16 04:48:48;;;;;;;8.32;7.53;;;18.30;99.90;;;;;;10051446;29;20298;-92
2023/08/16 04:53:50;;;;;;;5.70;5.00;;;18.50;99.90;;;;;;10048419;29;20238;-91
2023/08/16 04:58:53;;;;;;;6.85;6.15;;;18.80;99.90;;;;;;10052683;29;20262;-89
2023/08/16 05:03:57;;;;;;;8.07;7.25;;;18.90;99.90;;;;;;10036750;29;20237;-89
2023/08/16 05:09:01;;;;;;;7.15;5.95;;;19.10;99.90;;;;;;10047111;29;20297;-90
2023/08/16 05:14:04;;;;;;;13.20;11.23;;;19.30;99.90;;;;;;10049880;29;20269;-90
2023/08/16 05:19:06;;;;;;;4.35;3.95;;;19.40;99.90;;;;;;10052202;29;20233;-91
2023/08/16 05:24:10;;;;;;;12.60;9.73;;;19.50;99.90;;;;;;10030732;29;20297;-89
2023/08/16 05:29:12;;;;;;;7.38;6.18;;;19.70;99.90;;;;;;10049511;29;20254;-92
2023/08/16 05:34:16;;;;;;;15.57;11.75;;;19.90;99.90;;;;;;10044339;29;20673;-88
2023/08/16 05:39:18;;;;;;;15.25;12.02;;;20.00;99.90;;;;;;10051476;29;20298;-88
2023/08/16 05:44:21;;;;;;;13.60;12.25;;;20.30;99.90;;;;;;10051478;29;20789;-88
2023/08/16 05:49:23;;;;;;;11.93;10.52;;;20.60;99.90;;;;;;10051671;29;20927;-87
2023/08/16 05:54:26;;;;;;;13.77;12.45;;;20.80;99.90;;;;;;10053679;29;20289;-87
2023/08/16 05:59:29;;;;;;;14.27;11.63;;;20.90;99.90;;;;;;10050261;29;20997;-87
2023/08/16 06:04:32;;;;;;;19.00;15.57;;;21.10;99.90;;;;;;10045924;29;20245;-88
2023/08/16 06:09:34;;;;;;;11.13;10.02;;;21.20;99.90;;;;;;10051421;29;20720;-87
2023/08/16 06:14:37;;;;;;;16.45;13.40;;;21.20;99.90;;;;;;10051092;29;20261;-88
2023/08/16 06:19:40;;;;;;;15.32;11.95;;;21.40;99.90;;;;;;10038582;29;20249;-89
2023/08/16 06:24:44;;;;;;;19.23;15.32;;;21.40;99.90;;;;;;10050095;29;20598;-87
2023/08/16 06:29:47;;;;;;;20.25;15.75;;;21.40;99.90;;;;;;10049749;29;20257;-87
2023/08/16 06:34:50;;;;;;;22.23;15.40;;;21.40;99.90;;;;;;10046576;29;20237;-87
2023/08/16 06:39:52;;;;;;;11.73;10.55;;;21.40;99.90;;;;;;10038107;29;20236;-86
2023/08/16 06:44:55;;;;;;;13.60;11.82;;;21.50;99.90;;;;;;10042661;29;20246;-87
2023/08/16 06:49:57;;;;;;;12.82;11.52;;;21.70;99.90;;;;;;10051182;29;20260;-86
2023/08/16 06:55:01;;;;;;;17.77;15.98;;;21.90;99.90;;;;;;10050347;29;20241;-87
2023/08/16 07:00:04;;;;;;;25.92;16.42;;;22.00;99.90;;;;;;10046822;29;20745;-87
2023/08/16 07:05:08;;;;;;;14.98;12.57;;;22.10;99.90;;;;;;10031217;29;20266;-87
2023/08/16 07:10:10;;;;;;;14.25;12.85;;;22.30;99.90;;;;;;10033055;29;20264;-87
2023/08/16 07:15:13;;;;;;;15.25;12.73;;;22.50;99.90;;;;;;10049738;29;20257;-87
2023/08/16 07:20:16;;;;;;;17.40;13.27;;;22.70;99.90;;;;;;10049343;29;20237;-88
2023/08/16 07:25:19;;;;;;;18.30;15.15;;;22.90;99.70;;;;;;10049428;29;20991;-88
2023/08/16 07:30:21;;;;;;;18.02;13.23;;;23.20;99.00;;;;;;10047867;29;20253;-90
2023/08/16 07:35:24;;;;;;;16.85;14.23;;;23.30;99.00;;;;;;10047197;29;20233;-88
2023/08/16 07:40:26;;;;;;;17.63;13.70;;;23.50;98.70;;;;;;10052215;29;20237;-90
2023/08/16 07:45:29;;;;;;;24.83;16.85;;;23.70;98.90;;;;;;10057967;29;20960;-89
2023/08/16 07:50:32;;;;;;;20.42;13.98;;;23.80;99.40;;;;;;10039733;29;20314;-89
2023/08/16 07:55:34;;;;;;;19.75;15.07;;;23.90;98.10;;;;;;10037844;29;20237;-88
2023/08/16 08:00:37;;;;;;;15.32;13.13;;;24.00;98.50;;;;;;10053079;29;20877;-89
2023/08/16 08:05:39;;;;;;;19.73;14.63;;;24.10;98.10;;;;;;10054647;29;20273;-88
2023/08/16 08:10:43;;;;;;;14.93;13.38;;;24.20;98.30;;;;;;10059752;29;20254;-87
2023/08/16 08:15:46;;;;;;;20.75;17.50;;;24.30;97.40;;;;;;10054622;29;20745;-87
2023/08/16 08:20:49;;;;;;;14.25;12.60;;;24.40;98.40;;;;;;10055686;29;20302;-88
2023/08/16 08:25:52;;;;;;;17.10;14.80;;;24.50;96.40;;;;;;10045267;29;20251;-89
2023/08/16 08:30:55;;;;;;;24.30;18.23;;;24.80;98.10;;;;;;10037767;29;20241;-88
2023/08/16 08:35:58;;;;;;;24.95;17.15;;;25.00;98.90;;;;;;10050161;29;20752;-88
2023/08/16 08:41:01;;;;;;;19.70;15.98;;;25.20;98.70;;;;;;10050556;29;20277;-89
2023/08/16 08:46:05;;;;;;;16.90;15.25;;;25.20;97.60;;;;;;10047516;29;20287;-88
2023/08/16 08:51:08;;;;;;;14.27;11.32;;;25.30;97.70;;;;;;10053453;29;20237;-88
2023/08/16 08:56:15;;;;;;;16.52;14.18;;;25.30;96.00;;;;;;10053900;29;20266;-89
2023/08/16 09:01:20;;;;;;;13.75;12.30;;;25.40;96.10;;;;;;10056179;29;20293;-90
2023/08/16 09:06:22;;;;;;;15.90;13.88;;;25.50;94.60;;;;;;10053754;29;20280;-90
2023/08/16 09:29:40;;;;;;;13.40;11.60;;;25.70;93.20;;;;;;9986853;28;10001732;-83
2023/08/16 09:34:44;;;;;;;13.25;11.88;;;25.90;96.70;;;;;;10305297;28;20653;-82
2023/08/16 09:39:57;;;;;;;18.20;13.25;;;26.00;94.40;;;;;;10330180;28;20228;-83
2023/08/16 09:45:00;;;;;;;15.25;12.43;;;26.30;95.10;;;;;;10320301;28;20268;-84
2023/08/16 09:50:06;;;;;;;12.10;10.82;;;26.30;93.80;;;;;;10330664;28;20274;-83
2023/08/16 09:55:10;;;;;;;15.32;12.82;;;26.30;94.20;;;;;;10347371;28;20256;-83
2023/08/16 10:00:16;;;;;;;11.50;10.40;;;26.10;90.90;;;;;;10330620;28;20237;-85
2023/08/16 10:05:19;;;;;;;12.40;11.20;;;26.40;96.30;;;;;;10306859;28;20791;-84
2023/08/16 10:10:25;;;;;;;14.00;12.18;;;26.30;91.40;;;;;;10323740;28;20256;-84
2023/08/16 10:15:32;;;;;;;13.10;11.80;;;26.20;90.90;;;;;;10318449;28;20286;-82
2023/08/16 10:20:36;;;;;;;13.15;11.85;;;26.00;91.80;;;;;;10329331;28;20320;-82
2023/08/16 10:25:47;;;;;;;13.35;11.90;;;26.30;97.50;;;;;;10299535;28;20273;-87
2023/08/16 10:30:52;;;;;;;12.70;11.50;;;26.30;97.40;;;;;;10290916;28;20236;-86
2023/08/16 10:35:59;;;;;;;14.38;11.95;;;26.40;98.10;;;;;;10278800;28;20267;-85
2023/08/16 10:41:02;;;;;;;13.23;11.82;;;26.30;97.60;;;;;;10263314;28;20241;-87
2023/08/16 10:46:08;;;;;;;13.23;11.85;;;26.50;96.70;;;;;;10282150;28;20213;-86
2023/08/16 10:51:10;;;;;;;14.07;11.50;;;26.30;95.50;;;;;;10279698;28;20268;-85
2023/08/16 10:56:13;;;;;;;13.38;9.90;;;26.30;96.80;;;;;;10282366;28;20261;-86
2023/08/16 11:01:17;;;;;;;12.15;10.95;;;26.40;96.10;;;;;;10283452;28;20286;-84
2023/08/16 11:06:20;;;;;;;13.13;11.20;;;26.40;96.10;;;;;;10298461;28;20236;-84
2023/08/16 11:11:22;;;;;;;14.27;11.18;;;26.40;97.90;;;;;;10281704;28;20229;-84
2023/08/16 11:16:25;;;;;;;14.50;10.80;;;26.50;97.00;;;;;;10284074;28;20644;-84
2023/08/16 11:21:28;;;;;;;11.43;10.20;;;26.50;96.00;;;;;;10296501;28;20319;-83
2023/08/16 11:26:38;;;;;;;11.40;10.40;;;26.50;96.00;;;;;;10311238;28;20268;-83
2023/08/16 11:31:40;;;;;;;11.02;9.77;;;26.50;95.40;;;;;;10293119;28;20260;-86
2023/08/16 11:36:43;;;;;;;12.02;10.18;;;26.60;95.00;;;;;;10290848;28;20368;-84
2023/08/16 11:41:46;;;;;;;12.00;10.65;;;26.60;95.10;;;;;;10296775;28;20279;-83
2023/08/16 11:46:49;;;;;;;11.63;10.57;;;26.70;93.10;;;;;;10315990;28;20244;-84
2023/08/16 11:51:52;;;;;;;10.60;9.60;;;26.90;92.80;;;;;;10299042;28;20640;-83
2023/08/16 11:56:54;;;;;;;11.68;9.60;;;27.40;92.40;;;;;;10277634;28;20299;-84
2023/08/16 12:02:04;;;;;;;10.57;9.30;;;27.60;92.40;;;;;;10275910;28;20234;-84
2023/08/16 12:07:10;;;;;;;10.85;9.85;;;27.60;91.60;;;;;;10291046;28;20238;-84
2023/08/16 12:12:13;;;;;;;11.45;9.68;;;27.50;90.30;;;;;;10276732;28;20229;-85
2023/08/16 12:17:15;;;;;;;10.65;9.55;;;27.60;91.40;;;;;;10271853;28;20242;-83
2023/08/16 12:22:18;;;;;;;13.43;9.07;;;27.80;91.70;;;;;;10272923;28;20279;-85
2023/08/16 12:27:21;;;;;;;9.05;8.25;;;27.90;92.40;;;;;;10300078;28;20270;-82
2023/08/16 12:32:24;;;;;;;10.20;8.02;;;28.40;91.10;;;;;;10276907;28;20304;-82
2023/08/16 12:37:27;;;;;;;8.73;7.82;;;28.70;88.80;;;;;;10277986;28;20287;-82
2023/08/16 12:42:29;;;;;;;11.80;8.30;;;28.60;85.30;;;;;;10281420;28;20264;-83
2023/08/16 12:47:32;;;;;;;8.70;7.63;;;28.60;84.70;;;;;;10276633;28;20249;-82
2023/08/16 12:52:34;;;;;;;12.88;7.85;;;28.50;85.20;;;;;;10261982;28;20331;-82
2023/08/16 12:57:37;;;;;;;10.30;7.50;;;28.30;86.40;;;;;;10259257;28;20245;-82
2023/08/16 13:02:41;;;;;;;10.05;7.40;;;28.40;84.50;;;;;;10279579;28;20241;-82
2023/08/16 13:07:58;;;;;;;8.30;7.13;;;28.50;83.70;;;;;;10296246;28;20646;-83
2023/08/16 13:13:06;;;;;;;8.38;7.68;;;28.70;75.50;;;;;;10392644;28;20275;-85
2023/08/16 13:18:14;;;;;;;9.63;8.68;;;28.70;76.00;;;;;;10189517;22;20733;-89
2023/08/16 13:23:27;;;;;;;8.20;7.43;;;28.70;75.90;;;;;;10295760;28;20258;-90
2023/08/16 13:28:36;;;;;;;8.88;8.07;;;28.20;76.20;;;;;;10320380;28;20231;-88
2023/08/16 13:33:46;;;;;;;7.68;6.97;;;28.30;81.80;;;;;;10304082;28;20256;-89
2023/08/16 13:38:49;;;;;;;7.75;5.95;;;28.50;81.30;;;;;;10375760;22;20711;-86
2023/08/16 13:43:52;;;;;;;7.55;6.85;;;28.70;80.10;;;;;;10468628;28;20226;-85
2023/08/16 13:49:17;;;;;;;6.45;5.85;;;28.90;79.50;;;;;;10459218;28;20269;-85
2023/08/16 13:54:20;;;;;;;7.03;6.10;;;28.90;78.80;;;;;;10464727;28;20323;-86
2023/08/16 13:59:23;;;;;;;8.05;7.22;;;28.90;77.10;;;;;;10468279;28;20651;-84
2023/08/16 14:04:25;;;;;;;7.18;6.57;;;28.90;74.80;;;;;;10470252;28;20277;-84
2023/08/16 14:09:28;;;;;;;10.38;6.07;;;28.80;74.90;;;;;;10455698;28;20230;-84
2023/08/16 14:14:30;;;;;;;6.32;5.78;;;28.90;75.60;;;;;;10454073;28;20262;-85
2023/08/16 14:19:33;;;;;;;7.38;5.28;;;29.10;75.60;;;;;;10458019;28;20620;-81
2023/08/16 14:24:36;;;;;;;8.55;6.38;;;29.20;73.60;;;;;;10465050;28;20242;-81
2023/08/16 14:29:38;;;;;;;7.00;6.22;;;29.20;72.10;;;;;;10455500;28;20238;-82
2023/08/16 14:34:41;;;;;;;8.57;5.75;;;29.20;76.40;;;;;;10457533;28;20280;-82
2023/08/16 14:39:43;;;;;;;6.97;6.15;;;29.30;74.30;;;;;;10453738;28;20323;-87
2023/08/16 14:44:46;;;;;;;6.95;5.90;;;29.30;71.90;;;;;;10454665;28;20288;-87
2023/08/16 14:49:49;;;;;;;8.52;5.90;;;29.20;72.10;;;;;;10462669;28;20701;-88
2023/08/16 14:54:52;;;;;;;11.07;5.80;;;28.90;74.60;;;;;;10471554;28;20238;-82
2023/08/16 14:59:54;;;;;;;8.63;6.68;;;28.90;75.60;;;;;;10435249;28;20284;-86
2023/08/16 15:04:57;;;;;;;7.43;5.45;;;28.80;75.60;;;;;;10441380;28;20284;-86
2023/08/16 15:09:59;;;;;;;7.45;6.72;;;28.60;78.10;;;;;;10435433;28;20226;-85
2023/08/16 15:15:05;;;;;;;6.03;5.50;;;28.40;77.90;;;;;;10451786;28;20296;-86
2023/08/16 15:20:10;;;;;;;10.77;7.10;;;28.40;80.50;;;;;;10434165;28;20257;-86
2023/08/16 15:25:13;;;;;;;6.53;5.55;;;28.50;76.60;;;;;;10453196;28;20238;-86
2023/08/16 15:30:16;;;;;;;7.22;6.55;;;28.50;78.50;;;;;;10487458;22;20327;-86
2023/08/16 15:35:18;;;;;;;7.90;5.53;;;28.50;76.20;;;;;;10485674;22;20262;-86
2023/08/16 15:40:21;;;;;;;6.50;5.80;;;28.30;81.70;;;;;;10451668;28;20631;-86
2023/08/16 15:45:24;;;;;;;6.15;4.88;;;28.40;78.40;;;;;;10466708;28;20258;-86
2023/08/16 15:50:26;;;;;;;8.60;5.25;;;28.40;79.10;;;;;;10438366;28;20207;-86
2023/08/16 15:55:29;;;;;;;5.43;4.90;;;28.40;82.10;;;;;;10452065;28;20292;-86
2023/08/16 16:00:32;;;;;;;5.57;5.13;;;28.20;81.00;;;;;;10464065;28;20229;-86
2023/08/16 16:05:35;;;;;;;6.63;5.63;;;28.20;82.20;;;;;;10409135;22;20254;-86
2023/08/16 16:10:37;;;;;;;7.38;5.70;;;28.00;79.70;;;;;;10485102;28;20631;-88
2023/08/16 16:15:41;;;;;;;6.80;6.20;;;27.70;82.10;;;;;;10492346;28;20263;-86
2023/08/16 16:20:44;;;;;;;7.57;5.72;;;27.60;82.00;;;;;;10422013;28;20661;-85
2023/08/16 16:25:46;;;;;;;8.52;4.70;;;27.50;82.30;;;;;;10443811;28;20295;-86
2023/08/16 16:30:49;;;;;;;5.30;4.90;;;27.30;88.40;;;;;;10450642;28;20245;-87
2023/08/16 16:35:51;;;;;;;6.28;5.70;;;27.20;89.20;;;;;;10432810;28;20304;-86
2023/08/16 16:40:54;;;;;;;4.82;4.32;;;27.20;86.60;;;;;;10449422;28;20320;-87
2023/08/16 16:45:59;;;;;;;10.70;6.60;;;27.10;90.00;;;;;;10450370;28;20235;-87
2023/08/16 16:51:02;;;;;;;5.78;5.30;;;26.90;85.40;;;;;;10464733;28;20260;-84
2023/08/16 16:56:05;;;;;;;4.47;4.07;;;26.80;88.70;;;;;;10491277;28;20257;-85
2023/08/16 17:01:08;;;;;;;12.55;3.80;;;26.80;90.70;;;;;;10472684;28;20233;-87
2023/08/16 17:06:11;;;;;;;13.00;4.43;;;26.80;90.60;;;;;;10442408;28;20310;-85
2023/08/16 17:11:13;;;;;;;7.18;5.55;;;26.80;90.20;;;;;;10464798;28;20280;-85
2023/08/16 17:16:16;;;;;;;5.82;4.93;;;26.60;90.30;;;;;;10446612;28;20694;-87
2023/08/16 17:21:18;;;;;;;5.28;4.75;;;26.50;90.60;;;;;;10431940;28;20614;-86
2023/08/16 17:26:21;;;;;;;7.93;5.00;;;26.40;90.70;;;;;;10432480;28;20238;-86
2023/08/16 17:31:23;;;;;;;4.97;4.57;;;26.30;91.50;;;;;;10438365;28;20231;-84
2023/08/16 17:36:26;;;;;;;5.50;4.80;;;26.10;91.30;;;;;;10438008;28;20277;-84
2023/08/16 17:41:28;;;;;;;4.53;4.15;;;25.90;92.00;;;;;;10087629;23;10000422;-86
2023/08/16 17:46:31;;;;;;;8.02;5.15;;;25.80;93.10;;;;;;10491779;22;20952;-86
2023/08/16 17:51:34;;;;;;;5.30;4.80;;;25.70;94.00;;;;;;10501759;28;20570;-86
2023/08/16 17:56:36;;;;;;;6.15;5.03;;;25.50;94.70;;;;;;10495478;28;20242;-87
2023/08/16 18:01:39;;;;;;;5.65;4.88;;;25.40;95.20;;;;;;10494840;28;20221;-86
2023/08/16 18:06:42;;;;;;;5.05;4.65;;;25.20;95.90;;;;;;10494766;28;20241;-86
2023/08/16 18:11:45;;;;;;;7.43;5.38;;;25.00;96.60;;;;;;10494099;28;21038;-87
2023/08/16 18:16:48;;;;;;;6.93;5.30;;;24.90;97.10;;;;;;10474939;28;20246;-86
2023/08/16 18:21:51;;;;;;;6.45;5.82;;;24.70;97.60;;;;;;10472057;28;20264;-82
2023/08/16 18:26:53;;;;;;;7.95;6.03;;;24.60;98.10;;;;;;10480732;28;20229;-82
2023/08/16 18:31:56;;;;;;;5.07;4.68;;;24.40;98.80;;;;;;10511628;28;20233;-82
2023/08/16 18:36:58;;;;;;;5.15;4.70;;;24.30;99.30;;;;;;10472607;28;20261;-81
2023/08/16 18:42:04;;;;;;;8.02;5.30;;;24.20;99.90;;;;;;10478249;28;20238;-81
2023/08/16 18:47:09;;;;;;;8.25;4.93;;;24.10;99.90;;;;;;10493861;28;20261;-81
2023/08/16 18:52:13;;;;;;;9.77;5.55;;;24.00;99.90;;;;;;10476413;28;20287;-82
2023/08/16 18:57:15;;;;;;;5.03;4.55;;;23.90;99.90;;;;;;10476167;28;20258;-83
2023/08/16 19:02:18;;;;;;;5.25;4.75;;;23.70;99.90;;;;;;10494117;28;20724;-81
2023/08/16 19:07:20;;;;;;;6.35;4.68;;;23.70;99.90;;;;;;10490554;28;20237;-81
2023/08/16 19:12:22;;;;;;;6.18;4.32;;;23.60;99.90;;;;;;10481413;28;20234;-81
2023/08/16 19:17:25;;;;;;;5.45;4.95;;;23.60;99.90;;;;;;10488724;28;20258;-82
2023/08/16 19:22:28;;;;;;;4.55;4.00;;;23.50;99.90;;;;;;10490915;28;20287;-82
2023/08/16 19:27:31;;;;;;;5.40;4.70;;;23.40;99.90;;;;;;10471383;28;20291;-82
2023/08/16 19:32:33;;;;;;;6.15;4.43;;;23.40;99.90;;;;;;10465773;28;20226;-82
2023/08/16 19:37:36;;;;;;;6.45;4.82;;;23.40;99.90;;;;;;10489346;28;20277;-83
2023/08/16 19:42:42;;;;;;;6.43;4.47;;;23.30;99.90;;;;;;10482328;28;20611;-84
2023/08/16 19:47:44;;;;;;;6.78;4.35;;;23.30;99.90;;;;;;10491444;28;20288;-82
2023/08/16 19:52:48;;;;;;;6.53;4.15;;;23.30;99.90;;;;;;10491064;28;20238;-83
2023/08/16 19:57:51;;;;;;;6.55;3.88;;;23.20;99.90;;;;;;10486879;28;20311;-81
2023/08/16 20:02:53;;;;;;;4.32;4.03;;;23.20;99.90;;;;;;10491501;28;20275;-81
2023/08/16 20:07:56;;;;;;;4.50;3.83;;;23.10;99.90;;;;;;10489832;28;20237;-82
2023/08/16 20:12:58;;;;;;;4.30;3.65;;;23.10;99.90;;;;;;10457130;28;20242;-80
2023/08/16 20:18:01;;;;;;;4.10;3.75;;;23.00;99.90;;;;;;10449716;28;20262;-81
2023/08/16 20:23:05;;;;;;;7.38;4.18;;;23.00;99.90;;;;;;10468553;28;20234;-80
2023/08/16 20:28:07;;;;;;;5.95;3.80;;;23.00;99.90;;;;;;10489856;28;20670;-82
2023/08/16 20:33:10;;;;;;;3.67;3.35;;;22.90;99.90;;;;;;10487930;28;20241;-83
2023/08/16 20:38:12;;;;;;;3.58;3.28;;;22.80;99.90;;;;;;10473540;28;20272;-83
2023/08/16 20:43:15;;;;;;;3.97;3.58;;;22.80;99.90;;;;;;10489664;28;20230;-83
2023/08/16 20:48:17;;;;;;;7.40;3.65;;;22.70;99.90;;;;;;10483020;28;20671;-84
2023/08/16 20:53:20;;;;;;;3.67;3.38;;;22.60;99.90;;;;;;10474393;28;20259;-85
2023/08/16 20:58:23;;;;;;;5.25;3.33;;;22.50;99.90;;;;;;10471794;28;20616;-85
2023/08/16 21:03:25;;;;;;;4.60;3.40;;;22.50;99.90;;;;;;10465708;28;20296;-84
2023/08/16 21:08:28;;;;;;;3.45;3.15;;;22.40;99.90;;;;;;10452724;28;20617;-84
2023/08/16 21:13:30;;;;;;;3.80;3.45;;;22.30;99.90;;;;;;10489842;28;20293;-85
2023/08/16 21:18:33;;;;;;;7.63;3.40;;;22.30;99.90;;;;;;10488753;28;20811;-85
2023/08/16 21:23:35;;;;;;;3.45;3.00;;;22.30;99.90;;;;;;10466517;28;20233;-82
2023/08/16 21:28:38;;;;;;;3.05;2.83;;;22.20;99.90;;;;;;10463982;28;20612;-82
2023/08/16 21:33:40;;;;;;;5.75;3.53;;;22.00;99.90;;;;;;10488707;28;20237;-81
2023/08/16 21:38:43;;;;;;;12.23;3.97;;;22.10;99.90;;;;;;10488898;28;20302;-81
2023/08/16 21:43:45;;;;;;;3.83;2.92;;;21.90;99.90;;;;;;10486259;28;20622;-82
2023/08/16 21:48:48;;;;;;;4.25;3.40;;;21.80;99.90;;;;;;10458494;28;20262;-81
2023/08/16 21:53:50;;;;;;;7.75;3.65;;;21.80;99.90;;;;;;10480103;28;20298;-81
2023/08/16 21:58:53;;;;;;;3.75;3.00;;;21.80;99.90;;;;;;10470923;28;20323;-81
2023/08/16 22:03:55;;;;;;;3.75;3.45;;;21.80;99.90;;;;;;10487958;28;20287;-81
2023/08/16 22:08:58;;;;;;;5.13;3.00;;;21.60;99.90;;;;;;10489033;28;20230;-81
2023/08/16 22:14:00;;;;;;;3.13;2.92;;;21.70;99.90;;;;;;10461154;28;20234;-81
2023/08/16 22:19:03;;;;;;;3.53;3.20;;;21.60;99.90;;;;;;10447640;28;20760;-81
2023/08/16 22:24:06;;;;;;;3.20;2.90;;;21.40;99.90;;;;;;10491429;28;20283;-81
2023/08/16 22:29:09;;;;;;;5.38;2.90;;;21.40;99.90;;;;;;10477871;28;20675;-81
2023/08/16 22:34:12;;;;;;;4.22;3.40;;;21.40;99.90;;;;;;10492394;28;20293;-82
2023/08/16 22:39:15;;;;;;;4.45;3.10;;;21.30;99.90;;;;;;10475689;28;20303;-82
2023/08/16 22:44:17;;;;;;;3.35;3.05;;;21.40;99.90;;;;;;10472779;28;20238;-82
2023/08/16 22:49:20;;;;;;;3.00;2.70;;;21.30;99.90;;;;;;10492273;28;20234;-82
2023/08/16 22:54:23;;;;;;;2.80;2.60;;;21.30;99.90;;;;;;10493736;28;20237;-82
2023/08/16 22:59:25;;;;;;;5.07;3.22;;;21.30;99.90;;;;;;10479249;28;20318;-81
2023/08/16 23:04:28;;;;;;;4.30;3.20;;;21.20;99.90;;;;;;10485986;28;20814;-81
2023/08/16 23:09:30;;;;;;;3.40;3.20;;;21.10;99.90;;;;;;10494542;28;20234;-82
2023/08/16 23:14:33;;;;;;;5.40;3.13;;;21.10;99.90;;;;;;10493195;28;20646;-81
2023/08/16 23:19:35;;;;;;;5.18;3.60;;;21.10;99.90;;;;;;10488621;28;20237;-82
2023/08/16 23:24:38;;;;;;;5.35;3.38;;;21.10;99.90;;;;;;10493714;28;20256;-82
2023/08/16 23:29:40;;;;;;;4.43;3.85;;;21.00;99.90;;;;;;10492738;28;20234;-82
2023/08/16 23:34:43;;;;;;;4.30;3.90;;;20.90;99.90;;;;;;10493431;28;20230;-82
2023/08/16 23:39:46;;;;;;;6.05;4.32;;;20.90;99.90;;;;;;10494282;28;20218;-82
2023/08/16 23:44:48;;;;;;;6.95;4.97;;;20.80;99.90;;;;;;10493935;28;20640;-81
2023/08/16 23:49:51;;;;;;;4.55;4.15;;;20.80;99.90;;;;;;10493643;28;20292;-82
2023/08/16 23:54:53;;;;;;;4.45;3.60;;;20.80;99.90;;;;;;10492037;28;20634;-82
2023/08/16 23:59:56;;;;;;;4.65;3.33;;;20.70;99.90;;;;;;10493117;28;20270;-82
